sensor_id;sensor_type;location;lat;lon;timestamp;pressure;altitude;pressure_sealevel;temperature;humidity
62510;BME280;48558;48.242;11.654;2024-01-25T00:02:43;97210.78;;;8.36;88.01
62510;BME280;48558;48.242;11.654;2024-01-25T00:06:56;97208.47;;;8.34;88.59
62510;BME280;48558;48.242;11.654;2024-01-25T00:11:08;97209.56;;;8.37;88.07
62510;BME280;48558;48.242;11.654;2024-01-25T00:15:22;97216.06;;;8.46;87.72
62510;BME280;48558;48.242;11.654;2024-01-25T00:19:37;97208.94;;;8.49;87.21
62510;BME280;48558;48.242;11.654;2024-01-25T00:23:50;97209.28;;;8.51;87.25
62510;BME280;48558;48.242;11.654;2024-01-25T00:28:03;97210.84;;;8.52;87.79
62510;BME280;48558;48.242;11.654;2024-01-25T00:32:16;97210.06;;;8.51;88.43
62510;BME280;48558;48.242;11.654;2024-01-25T00:36:29;97217.28;;;8.45;89.56
62510;BME280;48558;48.242;11.654;2024-01-25T00:40:42;97195.47;;;8.35;90.71
62510;BME280;48558;48.242;11.654;2024-01-25T00:44:55;97204.25;;;8.30;93.86
62510;BME280;48558;48.242;11.654;2024-01-25T00:49:08;97215.59;;;8.32;95.59
62510;BME280;48558;48.242;11.654;2024-01-25T00:53:22;97213.47;;;8.39;95.52
62510;BME280;48558;48.242;11.654;2024-01-25T00:57:35;97197.97;;;8.29;96.84
62510;BME280;48558;48.242;11.654;2024-01-25T01:01:48;97209.09;;;8.22;98.44
62510;BME280;48558;48.242;11.654;2024-01-25T01:06:01;97217.22;;;8.29;99.17
62510;BME280;48558;48.242;11.654;2024-01-25T01:10:14;97244.28;;;8.34;99.70
62510;BME280;48558;48.242;11.654;2024-01-25T01:14:27;97248.88;;;8.41;99.09
62510;BME280;48558;48.242;11.654;2024-01-25T01:18:39;97242.81;;;8.30;99.85
62510;BME280;48558;48.242;11.654;2024-01-25T01:22:52;97246.25;;;8.34;100.00
62510;BME280;48558;48.242;11.654;2024-01-25T01:27:05;97233.75;;;8.29;100.00
62510;BME280;48558;48.242;11.654;2024-01-25T01:31:18;97244.19;;;8.38;99.91
62510;BME280;48558;48.242;11.654;2024-01-25T01:35:30;97233.09;;;8.41;99.12
62510;BME280;48558;48.242;11.654;2024-01-25T01:39:43;97245.22;;;8.44;98.16
62510;BME280;48558;48.242;11.654;2024-01-25T01:43:56;97249.63;;;8.41;98.24
62510;BME280;48558;48.242;11.654;2024-01-25T01:48:08;97240.06;;;8.46;98.04
62510;BME280;48558;48.242;11.654;2024-01-25T01:52:21;97232.69;;;8.43;97.38
62510;BME280;48558;48.242;11.654;2024-01-25T01:56:36;97217.69;;;8.24;97.80
62510;BME280;48558;48.242;11.654;2024-01-25T02:00:50;97209.09;;;8.22;98.03
62510;BME280;48558;48.242;11.654;2024-01-25T02:05:03;97244.09;;;8.41;97.33
62510;BME280;48558;48.242;11.654;2024-01-25T02:09:16;97234.03;;;8.35;97.33
62510;BME280;48558;48.242;11.654;2024-01-25T02:13:29;97244.19;;;8.38;96.38
62510;BME280;48558;48.242;11.654;2024-01-25T02:17:41;97220.34;;;8.31;96.78
62510;BME280;48558;48.242;11.654;2024-01-25T02:21:57;97212.53;;;8.46;96.69
62510;BME280;48558;48.242;11.654;2024-01-25T02:26:11;97218.91;;;8.43;97.09
62510;BME280;48558;48.242;11.654;2024-01-25T02:30:23;97222.25;;;8.34;97.55
62510;BME280;48558;48.242;11.654;2024-01-25T02:34:36;97217.09;;;8.36;97.90
62510;BME280;48558;48.242;11.654;2024-01-25T02:38:49;97213.25;;;8.30;98.15
62510;BME280;48558;48.242;11.654;2024-01-25T02:43:02;97218.97;;;8.39;98.14
62510;BME280;48558;48.242;11.654;2024-01-25T02:47:14;97217.00;;;8.40;97.80
62510;BME280;48558;48.242;11.654;2024-01-25T02:51:27;97221.13;;;8.32;98.20
62510;BME280;48558;48.242;11.654;2024-01-25T02:55:41;97226.53;;;8.35;98.52
62510;BME280;48558;48.242;11.654;2024-01-25T02:59:54;97222.25;;;8.34;98.13
62510;BME280;48558;48.242;11.654;2024-01-25T03:04:06;97207.59;;;8.37;98.84
62510;BME280;48558;48.242;11.654;2024-01-25T03:08:20;97190.31;;;8.37;99.08
62510;BME280;48558;48.242;11.654;2024-01-25T03:12:32;97187.00;;;8.26;100.00
62510;BME280;48558;48.242;11.654;2024-01-25T03:16:45;97189.69;;;8.29;100.00
62510;BME280;48558;48.242;11.654;2024-01-25T03:20:58;97162.28;;;8.22;100.00
62510;BME280;48558;48.242;11.654;2024-01-25T03:25:11;97168.44;;;8.30;100.00
62510;BME280;48558;48.242;11.654;2024-01-25T03:29:23;97179.88;;;8.28;100.00
62510;BME280;48558;48.242;11.654;2024-01-25T03:33:36;97159.53;;;8.22;100.00
62510;BME280;48558;48.242;11.654;2024-01-25T03:37:49;97187.28;;;8.31;100.00
62510;BME280;48558;48.242;11.654;2024-01-25T03:42:02;97197.72;;;8.40;100.00
62510;BME280;48558;48.242;11.654;2024-01-25T03:46:14;97202.03;;;8.41;100.00
62510;BME280;48558;48.242;11.654;2024-01-25T03:50:27;97192.66;;;8.38;100.00
62510;BME280;48558;48.242;11.654;2024-01-25T03:54:40;97192.75;;;8.51;100.00
62510;BME280;48558;48.242;11.654;2024-01-25T03:58:52;97211.06;;;8.41;100.00
62510;BME280;48558;48.242;11.654;2024-01-25T04:03:05;97209.53;;;8.40;100.00
62510;BME280;48558;48.242;11.654;2024-01-25T04:07:18;97226.75;;;8.44;100.00
62510;BME280;48558;48.242;11.654;2024-01-25T04:11:30;97224.91;;;8.38;100.00
62510;BME280;48558;48.242;11.654;2024-01-25T04:15:43;97230.13;;;8.32;100.00
62510;BME280;48558;48.242;11.654;2024-01-25T04:19:56;97237.13;;;8.17;100.00
62510;BME280;48558;48.242;11.654;2024-01-25T04:24:08;97241.16;;;8.32;100.00
62510;BME280;48558;48.242;11.654;2024-01-25T04:28:21;97229.50;;;8.25;100.00
62510;BME280;48558;48.242;11.654;2024-01-25T04:32:34;97249.25;;;8.39;100.00
62510;BME280;48558;48.242;11.654;2024-01-25T04:36:46;97252.47;;;8.38;100.00
62510;BME280;48558;48.242;11.654;2024-01-25T04:40:59;97261.34;;;8.26;100.00
62510;BME280;48558;48.242;11.654;2024-01-25T04:45:12;97250.75;;;8.24;100.00
62510;BME280;48558;48.242;11.654;2024-01-25T04:49:24;97263.38;;;8.41;100.00
62510;BME280;48558;48.242;11.654;2024-01-25T04:53:37;97257.53;;;8.39;100.00
62510;BME280;48558;48.242;11.654;2024-01-25T04:57:50;97264.66;;;8.37;100.00
62510;BME280;48558;48.242;11.654;2024-01-25T05:02:06;97271.28;;;8.20;100.00
62510;BME280;48558;48.242;11.654;2024-01-25T05:06:19;97284.16;;;8.26;100.00
62510;BME280;48558;48.242;11.654;2024-01-25T05:10:31;97279.50;;;8.43;100.00
62510;BME280;48558;48.242;11.654;2024-01-25T05:14:44;97289.66;;;8.46;99.53
62510;BME280;48558;48.242;11.654;2024-01-25T05:18:56;97279.06;;;8.44;97.22
62510;BME280;48558;48.242;11.654;2024-01-25T05:23:09;97291.50;;;8.52;96.55
62510;BME280;48558;48.242;11.654;2024-01-25T05:27:22;97308.03;;;8.52;96.95
62510;BME280;48558;48.242;11.654;2024-01-25T05:31:35;97299.47;;;8.47;98.03
62510;BME280;48558;48.242;11.654;2024-01-25T05:35:48;97294.91;;;8.40;98.54
62510;BME280;48558;48.242;11.654;2024-01-25T05:40:01;97302.81;;;8.38;98.37
62510;BME280;48558;48.242;11.654;2024-01-25T05:44:14;97293.22;;;8.23;95.99
62510;BME280;48558;48.242;11.654;2024-01-25T05:48:26;97310.22;;;8.41;94.28
62510;BME280;48558;48.242;11.654;2024-01-25T05:52:39;97316.59;;;8.38;94.57
62510;BME280;48558;48.242;11.654;2024-01-25T05:56:52;97314.56;;;8.19;95.20
62510;BME280;48558;48.242;11.654;2024-01-25T06:01:04;97335.66;;;8.29;96.60
62510;BME280;48558;48.242;11.654;2024-01-25T06:05:17;97338.84;;;8.24;98.20
62510;BME280;48558;48.242;11.654;2024-01-25T06:09:31;97332.81;;;8.10;98.43
62510;BME280;48558;48.242;11.654;2024-01-25T06:13:44;97333.72;;;8.03;100.00
62510;BME280;48558;48.242;11.654;2024-01-25T06:17:57;97352.75;;;7.94;100.00
62510;BME280;48558;48.242;11.654;2024-01-25T06:22:09;97368.50;;;7.93;100.00
62510;BME280;48558;48.242;11.654;2024-01-25T06:26:24;97372.13;;;7.87;100.00
62510;BME280;48558;48.242;11.654;2024-01-25T06:30:37;97368.22;;;7.88;100.00
62510;BME280;48558;48.242;11.654;2024-01-25T06:34:49;97388.84;;;7.76;100.00
62510;BME280;48558;48.242;11.654;2024-01-25T06:39:03;97396.13;;;7.63;100.00
62510;BME280;48558;48.242;11.654;2024-01-25T06:43:18;97396.78;;;7.44;100.00
62510;BME280;48558;48.242;11.654;2024-01-25T06:47:31;97417.53;;;7.49;100.00
62510;BME280;48558;48.242;11.654;2024-01-25T06:51:44;97398.88;;;7.63;100.00
62510;BME280;48558;48.242;11.654;2024-01-25T06:55:57;97412.06;;;7.75;100.00
62510;BME280;48558;48.242;11.654;2024-01-25T07:00:09;97407.84;;;7.67;100.00
62510;BME280;48558;48.242;11.654;2024-01-25T07:04:26;97422.56;;;7.57;100.00
62510;BME280;48558;48.242;11.654;2024-01-25T07:08:39;97424.81;;;7.62;100.00
62510;BME280;48558;48.242;11.654;2024-01-25T07:12:52;97429.56;;;7.62;100.00
62510;BME280;48558;48.242;11.654;2024-01-25T07:17:06;97438.28;;;7.57;100.00
62510;BME280;48558;48.242;11.654;2024-01-25T07:21:18;97440.91;;;7.64;100.00
62510;BME280;48558;48.242;11.654;2024-01-25T07:25:31;97457.09;;;7.58;100.00
62510;BME280;48558;48.242;11.654;2024-01-25T07:29:44;97436.97;;;7.38;100.00
62510;BME280;48558;48.242;11.654;2024-01-25T07:33:57;97466.34;;;7.71;100.00
62510;BME280;48558;48.242;11.654;2024-01-25T07:38:12;97470.47;;;7.60;100.00
62510;BME280;48558;48.242;11.654;2024-01-25T07:42:24;97479.09;;;7.85;100.00
62510;BME280;48558;48.242;11.654;2024-01-25T07:46:37;97474.44;;;7.82;100.00
62510;BME280;48558;48.242;11.654;2024-01-25T07:50:50;97459.94;;;7.78;100.00
62510;BME280;48558;48.242;11.654;2024-01-25T07:55:05;97488.25;;;7.78;100.00
62510;BME280;48558;48.242;11.654;2024-01-25T07:59:18;97487.84;;;7.80;100.00
62510;BME280;48558;48.242;11.654;2024-01-25T08:03:31;97478.28;;;7.88;100.00
62510;BME280;48558;48.242;11.654;2024-01-25T08:07:45;97480.22;;;7.91;100.00
62510;BME280;48558;48.242;11.654;2024-01-25T08:11:59;97462.03;;;7.97;100.00
62510;BME280;48558;48.242;11.654;2024-01-25T08:16:11;97454.44;;;7.78;100.00
62510;BME280;48558;48.242;11.654;2024-01-25T08:20:24;97445.38;;;7.81;100.00
62510;BME280;48558;48.242;11.654;2024-01-25T08:24:39;97450.28;;;7.40;100.00
62510;BME280;48558;48.242;11.654;2024-01-25T08:28:52;97468.09;;;7.58;100.00
62510;BME280;48558;48.242;11.654;2024-01-25T08:33:05;97483.00;;;7.87;100.00
62510;BME280;48558;48.242;11.654;2024-01-25T08:37:18;97510.16;;;8.12;100.00
62510;BME280;48558;48.242;11.654;2024-01-25T08:41:30;97514.47;;;8.13;100.00
62510;BME280;48558;48.242;11.654;2024-01-25T08:45:43;97480.16;;;7.94;99.55
62510;BME280;48558;48.242;11.654;2024-01-25T08:49:56;97471.63;;;7.85;98.78
62510;BME280;48558;48.242;11.654;2024-01-25T08:54:09;97486.31;;;8.02;98.40
62510;BME280;48558;48.242;11.654;2024-01-25T08:58:22;97485.00;;;8.10;97.44
62510;BME280;48558;48.242;11.654;2024-01-25T09:02:35;97487.41;;;8.08;95.32
62510;BME280;48558;48.242;11.654;2024-01-25T09:06:47;97457.59;;;7.80;94.89
62510;BME280;48558;48.242;11.654;2024-01-25T09:11:00;97523.28;;;8.28;93.09
62510;BME280;48558;48.242;11.654;2024-01-25T09:15:13;97531.03;;;8.59;89.43
62510;BME280;48558;48.242;11.654;2024-01-25T09:19:25;97532.25;;;8.82;88.34
62510;BME280;48558;48.242;11.654;2024-01-25T09:23:39;97553.38;;;8.88;86.22
62510;BME280;48558;48.242;11.654;2024-01-25T09:27:53;97552.00;;;9.00;85.46
62510;BME280;48558;48.242;11.654;2024-01-25T09:32:07;97552.13;;;8.93;86.09
62510;BME280;48558;48.242;11.654;2024-01-25T09:36:21;97551.31;;;9.15;83.96
62510;BME280;48558;48.242;11.654;2024-01-25T09:40:33;97541.81;;;9.16;84.04
62510;BME280;48558;48.242;11.654;2024-01-25T09:44:48;97547.31;;;8.97;85.17
62510;BME280;48558;48.242;11.654;2024-01-25T09:49:03;97520.81;;;9.03;79.83
62510;BME280;48558;48.242;11.654;2024-01-25T09:53:23;97539.75;;;9.20;77.52
62510;BME280;48558;48.242;11.654;2024-01-25T09:57:36;97548.25;;;9.29;75.59
62510;BME280;48558;48.242;11.654;2024-01-25T10:01:49;97552.47;;;8.95;76.43
62510;BME280;48558;48.242;11.654;2024-01-25T10:06:02;97556.38;;;9.17;77.10
62510;BME280;48558;48.242;11.654;2024-01-25T10:10:16;97557.16;;;8.98;76.38
62510;BME280;48558;48.242;11.654;2024-01-25T10:14:29;97559.00;;;9.44;75.76
62510;BME280;48558;48.242;11.654;2024-01-25T10:18:44;97559.06;;;9.20;77.02
62510;BME280;48558;48.242;11.654;2024-01-25T10:22:59;97557.31;;;9.69;75.43
62510;BME280;48558;48.242;11.654;2024-01-25T10:27:12;97543.84;;;10.07;73.26
62510;BME280;48558;48.242;11.654;2024-01-25T10:31:25;97539.78;;;10.31;70.73
62510;BME280;48558;48.242;11.654;2024-01-25T10:35:39;97528.28;;;9.61;69.82
62510;BME280;48558;48.242;11.654;2024-01-25T10:39:57;97526.59;;;9.67;69.12
62510;BME280;48558;48.242;11.654;2024-01-25T10:44:09;97529.31;;;9.51;68.28
62510;BME280;48558;48.242;11.654;2024-01-25T10:48:22;97522.09;;;9.37;69.20
62510;BME280;48558;48.242;11.654;2024-01-25T10:52:36;97514.94;;;9.20;67.87
62510;BME280;48558;48.242;11.654;2024-01-25T10:56:49;97508.22;;;9.21;67.74
62510;BME280;48558;48.242;11.654;2024-01-25T11:01:02;97505.84;;;9.04;68.72
62510;BME280;48558;48.242;11.654;2024-01-25T11:05:17;97501.81;;;9.08;67.48
62510;BME280;48558;48.242;11.654;2024-01-25T11:09:31;97497.13;;;9.05;67.43
62510;BME280;48558;48.242;11.654;2024-01-25T11:13:44;97481.56;;;9.54;66.40
62510;BME280;48558;48.242;11.654;2024-01-25T11:17:57;97488.34;;;9.85;65.05
62510;BME280;48558;48.242;11.654;2024-01-25T11:22:11;97474.88;;;9.87;64.40
62510;BME280;48558;48.242;11.654;2024-01-25T11:26:25;97476.88;;;9.51;64.01
62510;BME280;48558;48.242;11.654;2024-01-25T11:30:37;97459.34;;;9.77;62.64
62510;BME280;48558;48.242;11.654;2024-01-25T11:35:00;97459.88;;;10.53;60.73
62510;BME280;48558;48.242;11.654;2024-01-25T11:39:15;97470.41;;;10.74;60.10
62510;BME280;48558;48.242;11.654;2024-01-25T11:43:28;97456.03;;;10.79;58.99
62510;BME280;48558;48.242;11.654;2024-01-25T11:47:42;97447.97;;;11.13;57.92
62510;BME280;48558;48.242;11.654;2024-01-25T11:51:58;97434.19;;;10.97;58.93
62510;BME280;48558;48.242;11.654;2024-01-25T11:56:14;97442.53;;;11.10;58.89
62510;BME280;48558;48.242;11.654;2024-01-25T12:00:30;97443.41;;;11.61;57.79
62510;BME280;48558;48.242;11.654;2024-01-25T12:04:46;97432.97;;;11.39;59.31
62510;BME280;48558;48.242;11.654;2024-01-25T12:09:09;97426.28;;;11.24;59.93
62510;BME280;48558;48.242;11.654;2024-01-25T12:13:23;97436.38;;;11.18;60.91
62510;BME280;48558;48.242;11.654;2024-01-25T12:17:35;97413.19;;;11.66;59.31
62510;BME280;48558;48.242;11.654;2024-01-25T12:21:48;97407.34;;;11.77;58.96
62510;BME280;48558;48.242;11.654;2024-01-25T12:26:03;97414.84;;;12.14;58.20
62510;BME280;48558;48.242;11.654;2024-01-25T12:30:18;97428.41;;;11.20;58.19
62510;BME280;48558;48.242;11.654;2024-01-25T12:34:30;97423.25;;;11.47;57.69
62510;BME280;48558;48.242;11.654;2024-01-25T12:38:48;97426.53;;;10.89;58.67
62510;BME280;48558;48.242;11.654;2024-01-25T12:43:01;97416.34;;;10.86;59.82
62510;BME280;48558;48.242;11.654;2024-01-25T12:47:14;97415.38;;;10.92;59.23
62510;BME280;48558;48.242;11.654;2024-01-25T12:51:27;97407.63;;;10.87;58.34
62510;BME280;48558;48.242;11.654;2024-01-25T12:55:40;97397.75;;;11.15;59.36
62510;BME280;48558;48.242;11.654;2024-01-25T12:59:53;97401.47;;;11.75;59.02
62510;BME280;48558;48.242;11.654;2024-01-25T13:04:06;97388.88;;;11.07;59.43
62510;BME280;48558;48.242;11.654;2024-01-25T13:08:19;97397.28;;;11.16;58.44
62510;BME280;48558;48.242;11.654;2024-01-25T13:12:31;97399.94;;;11.07;58.50
62510;BME280;48558;48.242;11.654;2024-01-25T13:16:44;97396.78;;;10.93;59.89
62510;BME280;48558;48.242;11.654;2024-01-25T13:20:56;97389.44;;;10.73;60.38
62510;BME280;48558;48.242;11.654;2024-01-25T13:25:09;97377.66;;;10.28;61.61
62510;BME280;48558;48.242;11.654;2024-01-25T13:29:23;97378.38;;;10.45;60.84
62510;BME280;48558;48.242;11.654;2024-01-25T13:33:35;97382.69;;;10.46;60.48
62510;BME280;48558;48.242;11.654;2024-01-25T13:37:48;97368.75;;;10.49;60.51
62510;BME280;48558;48.242;11.654;2024-01-25T13:42:02;97375.63;;;10.73;59.75
62510;BME280;48558;48.242;11.654;2024-01-25T13:46:14;97367.25;;;10.90;59.96
62510;BME280;48558;48.242;11.654;2024-01-25T13:50:31;97363.19;;;10.94;59.52
62510;BME280;48558;48.242;11.654;2024-01-25T13:54:43;97354.69;;;10.72;60.58
62510;BME280;48558;48.242;11.654;2024-01-25T13:58:56;97355.53;;;10.57;60.81
62510;BME280;48558;48.242;11.654;2024-01-25T14:03:09;97353.31;;;10.52;61.60
62510;BME280;48558;48.242;11.654;2024-01-25T14:07:21;97355.69;;;10.37;61.51
62510;BME280;48558;48.242;11.654;2024-01-25T14:11:34;97351.66;;;10.26;62.25
62510;BME280;48558;48.242;11.654;2024-01-25T14:15:47;97345.44;;;10.05;63.13
62510;BME280;48558;48.242;11.654;2024-01-25T14:20:00;97327.34;;;9.88;64.24
62510;BME280;48558;48.242;11.654;2024-01-25T14:24:14;97332.50;;;10.02;65.01
62510;BME280;48558;48.242;11.654;2024-01-25T14:28:27;97334.94;;;10.00;65.20
62510;BME280;48558;48.242;11.654;2024-01-25T14:32:40;97315.50;;;10.20;64.91
62510;BME280;48558;48.242;11.654;2024-01-25T14:36:53;97327.09;;;10.15;64.87
62510;BME280;48558;48.242;11.654;2024-01-25T14:41:10;97311.38;;;9.96;65.19
62510;BME280;48558;48.242;11.654;2024-01-25T14:45:23;97326.19;;;10.02;65.03
62510;BME280;48558;48.242;11.654;2024-01-25T14:49:35;97325.47;;;9.85;64.50
62510;BME280;48558;48.242;11.654;2024-01-25T14:53:48;97322.19;;;9.90;66.34
62510;BME280;48558;48.242;11.654;2024-01-25T14:58:01;97317.53;;;9.71;66.50
62510;BME280;48558;48.242;11.654;2024-01-25T15:02:13;97319.28;;;9.65;66.49
62510;BME280;48558;48.242;11.654;2024-01-25T15:06:26;97318.38;;;9.52;67.47
62510;BME280;48558;48.242;11.654;2024-01-25T15:10:40;97318.22;;;9.43;68.05
62510;BME280;48558;48.242;11.654;2024-01-25T15:14:52;97314.94;;;9.32;68.00
62510;BME280;48558;48.242;11.654;2024-01-25T15:19:05;97310.19;;;9.32;68.46
62510;BME280;48558;48.242;11.654;2024-01-25T15:23:18;97317.94;;;9.21;68.62
62510;BME280;48558;48.242;11.654;2024-01-25T15:27:32;97301.13;;;9.00;69.06
62510;BME280;48558;48.242;11.654;2024-01-25T15:31:44;97314.50;;;8.82;69.94
62510;BME280;48558;48.242;11.654;2024-01-25T15:35:57;97312.69;;;8.75;70.31
62510;BME280;48558;48.242;11.654;2024-01-25T15:40:10;97314.44;;;8.65;70.79
62510;BME280;48558;48.242;11.654;2024-01-25T15:44:25;97308.78;;;8.53;71.13
62510;BME280;48558;48.242;11.654;2024-01-25T15:48:38;97303.16;;;8.40;71.60
62510;BME280;48558;48.242;11.654;2024-01-25T15:52:51;97296.94;;;8.56;71.17
62510;BME280;48558;48.242;11.654;2024-01-25T15:57:03;97305.00;;;8.27;72.93
62510;BME280;48558;48.242;11.654;2024-01-25T16:01:20;97306.94;;;8.07;73.65
62510;BME280;48558;48.242;11.654;2024-01-25T16:05:33;97301.13;;;8.02;74.66
62510;BME280;48558;48.242;11.654;2024-01-25T16:09:45;97294.94;;;8.17;74.91
62510;BME280;48558;48.242;11.654;2024-01-25T16:13:58;97290.56;;;7.77;77.11
62510;BME280;48558;48.242;11.654;2024-01-25T16:18:11;97289.31;;;7.58;80.22
62510;BME280;48558;48.242;11.654;2024-01-25T16:22:24;97293.44;;;7.47;81.87
62510;BME280;48558;48.242;11.654;2024-01-25T16:26:36;97283.97;;;7.24;84.29
62510;BME280;48558;48.242;11.654;2024-01-25T16:30:49;97290.31;;;7.21;85.69
62510;BME280;48558;48.242;11.654;2024-01-25T16:35:01;97301.53;;;7.07;87.24
62510;BME280;48558;48.242;11.654;2024-01-25T16:39:15;97300.84;;;7.00;88.79
62510;BME280;48558;48.242;11.654;2024-01-25T16:43:28;97305.53;;;7.03;90.64
62510;BME280;48558;48.242;11.654;2024-01-25T16:47:40;97318.16;;;6.97;93.19
62510;BME280;48558;48.242;11.654;2024-01-25T16:51:53;97289.63;;;6.61;95.12
62510;BME280;48558;48.242;11.654;2024-01-25T16:56:07;97306.59;;;6.52;96.46
62510;BME280;48558;48.242;11.654;2024-01-25T17:00:20;97323.81;;;6.56;98.47
62510;BME280;48558;48.242;11.654;2024-01-25T17:04:36;97313.97;;;6.59;97.56
62510;BME280;48558;48.242;11.654;2024-01-25T17:08:49;97305.38;;;6.57;98.34
62510;BME280;48558;48.242;11.654;2024-01-25T17:13:02;97299.50;;;6.55;99.91
62510;BME280;48558;48.242;11.654;2024-01-25T17:17:15;97314.13;;;6.48;100.00
62510;BME280;48558;48.242;11.654;2024-01-25T17:21:27;97327.91;;;6.41;100.00
62510;BME280;48558;48.242;11.654;2024-01-25T17:25:40;97325.69;;;6.29;100.00
62510;BME280;48558;48.242;11.654;2024-01-25T17:29:53;97316.44;;;6.19;100.00
62510;BME280;48558;48.242;11.654;2024-01-25T17:34:06;97319.19;;;6.16;100.00
62510;BME280;48558;48.242;11.654;2024-01-25T17:38:20;97323.09;;;6.18;100.00
62510;BME280;48558;48.242;11.654;2024-01-25T17:42:32;97320.84;;;6.10;100.00
62510;BME280;48558;48.242;11.654;2024-01-25T17:46:45;97335.78;;;6.02;100.00
62510;BME280;48558;48.242;11.654;2024-01-25T17:50:58;97310.81;;;5.93;100.00
62510;BME280;48558;48.242;11.654;2024-01-25T17:55:11;97321.78;;;5.93;100.00
62510;BME280;48558;48.242;11.654;2024-01-25T17:59:24;97326.81;;;5.98;100.00
62510;BME280;48558;48.242;11.654;2024-01-25T18:03:38;97326.03;;;6.01;100.00
62510;BME280;48558;48.242;11.654;2024-01-25T18:07:51;97344.41;;;6.04;100.00
62510;BME280;48558;48.242;11.654;2024-01-25T18:12:04;97339.69;;;6.04;100.00
62510;BME280;48558;48.242;11.654;2024-01-25T18:16:17;97344.41;;;6.04;100.00
62510;BME280;48558;48.242;11.654;2024-01-25T18:20:29;97349.50;;;6.02;100.00
62510;BME280;48558;48.242;11.654;2024-01-25T18:24:46;97342.13;;;5.99;100.00
62510;BME280;48558;48.242;11.654;2024-01-25T18:28:59;97347.56;;;6.02;100.00
62510;BME280;48558;48.242;11.654;2024-01-25T18:33:11;97341.69;;;6.00;100.00
62510;BME280;48558;48.242;11.654;2024-01-25T18:37:24;97328.09;;;5.90;100.00
62510;BME280;48558;48.242;11.654;2024-01-25T18:41:37;97321.91;;;5.78;100.00
62510;BME280;48558;48.242;11.654;2024-01-25T18:45:49;97325.75;;;5.88;100.00
62510;BME280;48558;48.242;11.654;2024-01-25T18:50:02;97324.94;;;5.91;100.00
62510;BME280;48558;48.242;11.654;2024-01-25T18:54:15;97307.31;;;5.89;100.00
62510;BME280;48558;48.242;11.654;2024-01-25T18:58:29;97309.69;;;5.87;100.00
62510;BME280;48558;48.242;11.654;2024-01-25T19:02:43;97302.66;;;6.23;100.00
62510;BME280;48558;48.242;11.654;2024-01-25T19:06:56;97297.91;;;6.57;100.00
62510;BME280;48558;48.242;11.654;2024-01-25T19:11:09;97306.34;;;6.73;100.00
62510;BME280;48558;48.242;11.654;2024-01-25T19:15:22;97308.56;;;6.82;100.00
62510;BME280;48558;48.242;11.654;2024-01-25T19:19:34;97302.97;;;6.89;100.00
62510;BME280;48558;48.242;11.654;2024-01-25T19:23:47;97305.47;;;7.06;100.00
62510;BME280;48558;48.242;11.654;2024-01-25T19:33:22;97291.25;;;7.11;100.00
62510;BME280;48558;48.242;11.654;2024-01-25T19:37:35;97297.59;;;7.08;100.00
62510;BME280;48558;48.242;11.654;2024-01-25T19:41:47;97285.50;;;7.02;100.00
62510;BME280;48558;48.242;11.654;2024-01-25T19:46:00;97278.19;;;7.19;100.00
62510;BME280;48558;48.242;11.654;2024-01-25T19:50:13;97288.56;;;7.35;100.00
62510;BME280;48558;48.242;11.654;2024-01-25T19:54:26;97283.53;;;7.30;100.00
62510;BME280;48558;48.242;11.654;2024-01-25T19:58:39;97288.06;;;7.40;100.00
62510;BME280;48558;48.242;11.654;2024-01-25T20:02:52;97261.16;;;7.28;100.00
62510;BME280;48558;48.242;11.654;2024-01-25T20:07:07;97298.41;;;7.55;100.00
62510;BME280;48558;48.242;11.654;2024-01-25T20:11:20;97297.22;;;7.56;100.00
62510;BME280;48558;48.242;11.654;2024-01-25T20:15:36;97302.81;;;7.49;100.00
62510;BME280;48558;48.242;11.654;2024-01-25T20:19:49;97315.25;;;7.34;100.00
62510;BME280;48558;48.242;11.654;2024-01-25T20:24:02;97313.78;;;7.26;100.00
62510;BME280;48558;48.242;11.654;2024-01-25T20:28:15;97316.50;;;7.30;100.00
62510;BME280;48558;48.242;11.654;2024-01-25T20:32:27;97303.84;;;7.36;100.00
62510;BME280;48558;48.242;11.654;2024-01-25T20:36:40;97322.97;;;7.43;100.00
62510;BME280;48558;48.242;11.654;2024-01-25T20:40:53;97320.22;;;7.43;100.00
62510;BME280;48558;48.242;11.654;2024-01-25T20:45:06;97324.03;;;7.49;100.00
62510;BME280;48558;48.242;11.654;2024-01-25T20:49:18;97296.31;;;7.63;100.00
62510;BME280;48558;48.242;11.654;2024-01-25T20:53:31;97310.13;;;7.59;100.00
62510;BME280;48558;48.242;11.654;2024-01-25T20:57:51;97313.75;;;7.76;100.00
62510;BME280;48558;48.242;11.654;2024-01-25T21:02:05;97314.97;;;7.52;100.00
62510;BME280;48558;48.242;11.654;2024-01-25T21:06:19;97307.38;;;7.59;100.00
62510;BME280;48558;48.242;11.654;2024-01-25T21:10:33;97298.91;;;7.50;100.00
62510;BME280;48558;48.242;11.654;2024-01-25T21:14:46;97304.41;;;7.50;100.00
62510;BME280;48558;48.242;11.654;2024-01-25T21:18:59;97296.63;;;7.45;100.00
62510;BME280;48558;48.242;11.654;2024-01-25T21:23:12;97308.78;;;7.44;100.00
62510;BME280;48558;48.242;11.654;2024-01-25T21:27:24;97304.75;;;7.52;100.00
62510;BME280;48558;48.242;11.654;2024-01-25T21:31:37;97303.13;;;7.55;100.00
62510;BME280;48558;48.242;11.654;2024-01-25T21:35:52;97299.78;;;7.44;100.00
62510;BME280;48558;48.242;11.654;2024-01-25T21:40:05;97298.41;;;7.55;100.00
62510;BME280;48558;48.242;11.654;2024-01-25T21:44:19;97312.69;;;7.47;100.00
62510;BME280;48558;48.242;11.654;2024-01-25T21:48:32;97313.78;;;7.53;100.00
62510;BME280;48558;48.242;11.654;2024-01-25T21:52:45;97311.06;;;7.49;100.00
62510;BME280;48558;48.242;11.654;2024-01-25T21:56:57;97313.94;;;7.42;100.00
62510;BME280;48558;48.242;11.654;2024-01-25T22:01:10;97317.94;;;7.38;100.00
62510;BME280;48558;48.242;11.654;2024-01-25T22:05:23;97303.00;;;7.39;100.00
62510;BME280;48558;48.242;11.654;2024-01-25T22:09:36;97310.28;;;7.49;100.00
62510;BME280;48558;48.242;11.654;2024-01-25T22:13:49;97308.03;;;7.44;100.00
62510;BME280;48558;48.242;11.654;2024-01-25T22:18:05;97311.53;;;7.44;100.00